sensor_id;sensor_type;location;lat;lon;timestamp;P1;durP1;ratioP1;P2;durP2;ratioP2
29938;SDS011;16799;50.844;5.304;2022-12-22T00:02:09;3.20;;;2.80;;
29938;SDS011;16799;50.844;5.304;2022-12-22T00:05:12;2.60;;;2.40;;
29938;SDS011;16799;50.844;5.304;2022-12-22T00:08:06;6.67;;;3.60;;
29938;SDS011;16799;50.844;5.304;2022-12-22T00:10:51;2.87;;;2.53;;
29938;SDS011;16799;50.844;5.304;2022-12-22T00:13:36;3.00;;;2.70;;
29938;SDS011;16799;50.844;5.304;2022-12-22T00:16:20;3.27;;;3.07;;
29938;SDS011;16799;50.844;5.304;2022-12-22T00:19:10;4.07;;;3.67;;
29938;SDS011;16799;50.844;5.304;2022-12-22T00:22:00;3.43;;;3.13;;
29938;SDS011;16799;50.844;5.304;2022-12-22T00:24:55;3.80;;;3.60;;
29938;SDS011;16799;50.844;5.304;2022-12-22T00:27:39;3.40;;;3.10;;
29938;SDS011;16799;50.844;5.304;2022-12-22T00:30:24;3.83;;;3.53;;
29938;SDS011;16799;50.844;5.304;2022-12-22T00:33:08;8.60;;;4.20;;
29938;SDS011;16799;50.844;5.304;2022-12-22T00:35:56;5.70;;;3.53;;
29938;SDS011;16799;50.844;5.304;2022-12-22T00:38:40;4.37;;;3.20;;
29938;SDS011;16799;50.844;5.304;2022-12-22T00:41:25;3.20;;;3.00;;
29938;SDS011;16799;50.844;5.304;2022-12-22T00:44:09;3.40;;;3.10;;
29938;SDS011;16799;50.844;5.304;2022-12-22T00:46:53;2.97;;;2.63;;
29938;SDS011;16799;50.844;5.304;2022-12-22T00:49:37;3.10;;;2.50;;
29938;SDS011;16799;50.844;5.304;2022-12-22T00:52:26;2.87;;;2.67;;
29938;SDS011;16799;50.844;5.304;2022-12-22T00:55:11;3.60;;;2.40;;
29938;SDS011;16799;50.844;5.304;2022-12-22T00:57:57;3.20;;;2.80;;
29938;SDS011;16799;50.844;5.304;2022-12-22T01:00:42;3.27;;;3.07;;
29938;SDS011;16799;50.844;5.304;2022-12-22T01:03:26;1.83;;;1.73;;
29938;SDS011;16799;50.844;5.304;2022-12-22T01:06:10;2.93;;;2.73;;
29938;SDS011;16799;50.844;5.304;2022-12-22T01:08:54;3.50;;;2.77;;
29938;SDS011;16799;50.844;5.304;2022-12-22T01:11:39;1.90;;;1.80;;
29938;SDS011;16799;50.844;5.304;2022-12-22T01:14:23;2.33;;;2.17;;
29938;SDS011;16799;50.844;5.304;2022-12-22T01:17:10;1.47;;;1.37;;
29938;SDS011;16799;50.844;5.304;2022-12-22T01:19:54;2.60;;;1.53;;
29938;SDS011;16799;50.844;5.304;2022-12-22T01:22:39;1.37;;;1.13;;
29938;SDS011;16799;50.844;5.304;2022-12-22T01:25:24;2.87;;;2.53;;
29938;SDS011;16799;50.844;5.304;2022-12-22T01:28:12;1.37;;;1.27;;
29938;SDS011;16799;50.844;5.304;2022-12-22T01:34:03;2.00;;;1.90;;
29938;SDS011;16799;50.844;5.304;2022-12-22T01:36:47;8.83;;;2.47;;
29938;SDS011;16799;50.844;5.304;2022-12-22T01:39:31;2.40;;;2.07;;
29938;SDS011;16799;50.844;5.304;2022-12-22T01:42:15;6.70;;;1.77;;
29938;SDS011;16799;50.844;5.304;2022-12-22T01:45:04;10.23;;;2.00;;
29938;SDS011;16799;50.844;5.304;2022-12-22T01:48:17;1.60;;;1.50;;
29938;SDS011;16799;50.844;5.304;2022-12-22T01:51:06;3.80;;;1.40;;
29938;SDS011;16799;50.844;5.304;2022-12-22T01:53:53;1.67;;;1.57;;
29938;SDS011;16799;50.844;5.304;2022-12-22T01:56:38;1.50;;;1.40;;
29938;SDS011;16799;50.844;5.304;2022-12-22T01:59:23;1.83;;;1.73;;
29938;SDS011;16799;50.844;5.304;2022-12-22T02:02:07;2.60;;;1.67;;
29938;SDS011;16799;50.844;5.304;2022-12-22T02:04:52;2.60;;;1.57;;
29938;SDS011;16799;50.844;5.304;2022-12-22T02:13:41;1.23;;;1.13;;
29938;SDS011;16799;50.844;5.304;2022-12-22T02:25:40;2.33;;;1.50;;
29938;SDS011;16799;50.844;5.304;2022-12-22T02:28:32;1.50;;;1.40;;
29938;SDS011;16799;50.844;5.304;2022-12-22T02:31:17;2.57;;;1.60;;
29938;SDS011;16799;50.844;5.304;2022-12-22T02:34:01;1.33;;;1.23;;
29938;SDS011;16799;50.844;5.304;2022-12-22T02:37:10;1.40;;;1.30;;
29938;SDS011;16799;50.844;5.304;2022-12-22T02:39:54;3.10;;;1.30;;
29938;SDS011;16799;50.844;5.304;2022-12-22T02:42:51;1.50;;;1.40;;
29938;SDS011;16799;50.844;5.304;2022-12-22T02:45:52;1.10;;;1.00;;
29938;SDS011;16799;50.844;5.304;2022-12-22T02:48:49;2.43;;;1.40;;
29938;SDS011;16799;50.844;5.304;2022-12-22T02:51:42;1.50;;;1.40;;
29938;SDS011;16799;50.844;5.304;2022-12-22T02:54:31;1.47;;;1.10;;
29938;SDS011;16799;50.844;5.304;2022-12-22T02:57:16;1.50;;;1.40;;
29938;SDS011;16799;50.844;5.304;2022-12-22T03:00:02;1.80;;;1.30;;
29938;SDS011;16799;50.844;5.304;2022-12-22T03:02:49;2.10;;;1.90;;
29938;SDS011;16799;50.844;5.304;2022-12-22T03:05:33;2.10;;;1.83;;
29938;SDS011;16799;50.844;5.304;2022-12-22T03:08:17;4.70;;;2.60;;
29938;SDS011;16799;50.844;5.304;2022-12-22T03:11:01;5.93;;;2.00;;
29938;SDS011;16799;50.844;5.304;2022-12-22T03:13:46;1.30;;;1.20;;
29938;SDS011;16799;50.844;5.304;2022-12-22T03:16:30;1.93;;;1.67;;
29938;SDS011;16799;50.844;5.304;2022-12-22T03:19:14;2.60;;;1.77;;
29938;SDS011;16799;50.844;5.304;2022-12-22T03:21:58;3.20;;;2.10;;
29938;SDS011;16799;50.844;5.304;2022-12-22T03:24:41;6.10;;;2.07;;
29938;SDS011;16799;50.844;5.304;2022-12-22T03:27:26;5.83;;;1.70;;
29938;SDS011;16799;50.844;5.304;2022-12-22T03:29:51;2.17;;;1.83;;
29938;SDS011;16799;50.844;5.304;2022-12-22T03:32:17;12.27;;;3.40;;
29938;SDS011;16799;50.844;5.304;2022-12-22T03:34:43;2.40;;;2.20;;
29938;SDS011;16799;50.844;5.304;2022-12-22T03:37:08;21.10;;;2.97;;
29938;SDS011;16799;50.844;5.304;2022-12-22T03:39:34;2.03;;;1.27;;
29938;SDS011;16799;50.844;5.304;2022-12-22T03:42:00;15.37;;;1.70;;
29938;SDS011;16799;50.844;5.304;2022-12-22T03:44:44;12.13;;;1.57;;
29938;SDS011;16799;50.844;5.304;2022-12-22T03:47:29;6.43;;;1.80;;
29938;SDS011;16799;50.844;5.304;2022-12-22T03:49:55;90.90;;;8.50;;
29938;SDS011;16799;50.844;5.304;2022-12-22T03:52:21;3.17;;;1.47;;
29938;SDS011;16799;50.844;5.304;2022-12-22T03:54:47;3.43;;;2.00;;
29938;SDS011;16799;50.844;5.304;2022-12-22T03:57:12;2.87;;;2.03;;
29938;SDS011;16799;50.844;5.304;2022-12-22T03:59:38;1.57;;;1.43;;
29938;SDS011;16799;50.844;5.304;2022-12-22T04:02:04;2.07;;;1.60;;
29938;SDS011;16799;50.844;5.304;2022-12-22T04:04:30;1.80;;;1.70;;
29938;SDS011;16799;50.844;5.304;2022-12-22T04:06:56;1.37;;;1.27;;
29938;SDS011;16799;50.844;5.304;2022-12-22T04:09:22;1.90;;;1.80;;
29938;SDS011;16799;50.844;5.304;2022-12-22T04:11:51;2.13;;;1.80;;
29938;SDS011;16799;50.844;5.304;2022-12-22T04:14:35;1.80;;;1.70;;
29938;SDS011;16799;50.844;5.304;2022-12-22T04:17:04;3.57;;;2.70;;
29938;SDS011;16799;50.844;5.304;2022-12-22T04:19:31;3.00;;;2.70;;
29938;SDS011;16799;50.844;5.304;2022-12-22T04:21:57;4.77;;;3.17;;
29938;SDS011;16799;50.844;5.304;2022-12-22T04:24:23;3.03;;;2.83;;
29938;SDS011;16799;50.844;5.304;2022-12-22T04:26:49;2.33;;;2.13;;
29938;SDS011;16799;50.844;5.304;2022-12-22T04:29:15;5.90;;;3.60;;
29938;SDS011;16799;50.844;5.304;2022-12-22T04:31:41;4.73;;;2.50;;
29938;SDS011;16799;50.844;5.304;2022-12-22T04:34:07;5.83;;;3.87;;
29938;SDS011;16799;50.844;5.304;2022-12-22T04:36:32;3.00;;;2.80;;
29938;SDS011;16799;50.844;5.304;2022-12-22T04:38:58;7.87;;;4.10;;
29938;SDS011;16799;50.844;5.304;2022-12-22T04:41:24;3.37;;;3.00;;
29938;SDS011;16799;50.844;5.304;2022-12-22T04:43:50;70.60;;;6.60;;
29938;SDS011;16799;50.844;5.304;2022-12-22T04:46:15;4.93;;;3.20;;
29938;SDS011;16799;50.844;5.304;2022-12-22T04:48:41;3.60;;;3.30;;
29938;SDS011;16799;50.844;5.304;2022-12-22T04:51:07;3.97;;;3.67;;
29938;SDS011;16799;50.844;5.304;2022-12-22T04:53:32;2.70;;;2.50;;
29938;SDS011;16799;50.844;5.304;2022-12-22T04:55:59;3.00;;;2.77;;
29938;SDS011;16799;50.844;5.304;2022-12-22T04:58:30;4.40;;;3.00;;
29938;SDS011;16799;50.844;5.304;2022-12-22T05:00:56;4.10;;;2.90;;
29938;SDS011;16799;50.844;5.304;2022-12-22T05:03:31;14.70;;;3.63;;
29938;SDS011;16799;50.844;5.304;2022-12-22T05:05:57;6.70;;;4.60;;
29938;SDS011;16799;50.844;5.304;2022-12-22T05:08:22;6.60;;;3.30;;
29938;SDS011;16799;50.844;5.304;2022-12-22T05:10:48;3.30;;;3.00;;
29938;SDS011;16799;50.844;5.304;2022-12-22T05:13:14;7.90;;;3.53;;
29938;SDS011;16799;50.844;5.304;2022-12-22T05:15:39;5.13;;;3.00;;
29938;SDS011;16799;50.844;5.304;2022-12-22T05:18:05;3.47;;;3.17;;
29938;SDS011;16799;50.844;5.304;2022-12-22T05:20:31;2.37;;;2.17;;
29938;SDS011;16799;50.844;5.304;2022-12-22T05:22:56;2.83;;;2.60;;
29938;SDS011;16799;50.844;5.304;2022-12-22T05:25:22;3.27;;;2.97;;
29938;SDS011;16799;50.844;5.304;2022-12-22T05:27:48;3.30;;;2.70;;
29938;SDS011;16799;50.844;5.304;2022-12-22T05:30:15;2.87;;;2.67;;
29938;SDS011;16799;50.844;5.304;2022-12-22T05:32:41;2.10;;;2.00;;
29938;SDS011;16799;50.844;5.304;2022-12-22T05:35:07;2.90;;;2.70;;
29938;SDS011;16799;50.844;5.304;2022-12-22T05:37:34;2.60;;;2.40;;
29938;SDS011;16799;50.844;5.304;2022-12-22T05:40:00;7.40;;;3.37;;
29938;SDS011;16799;50.844;5.304;2022-12-22T05:42:26;2.67;;;2.47;;
29938;SDS011;16799;50.844;5.304;2022-12-22T05:45:04;4.43;;;4.13;;
29938;SDS011;16799;50.844;5.304;2022-12-22T05:47:29;4.10;;;3.80;;
29938;SDS011;16799;50.844;5.304;2022-12-22T05:49:55;3.73;;;3.53;;
29938;SDS011;16799;50.844;5.304;2022-12-22T05:52:21;3.27;;;3.07;;
29938;SDS011;16799;50.844;5.304;2022-12-22T05:54:46;3.50;;;3.20;;
29938;SDS011;16799;50.844;5.304;2022-12-22T05:57:12;4.83;;;4.33;;
29938;SDS011;16799;50.844;5.304;2022-12-22T05:59:38;3.93;;;3.67;;
29938;SDS011;16799;50.844;5.304;2022-12-22T06:02:03;5.03;;;4.13;;
29938;SDS011;16799;50.844;5.304;2022-12-22T06:04:29;12.73;;;5.00;;
29938;SDS011;16799;50.844;5.304;2022-12-22T06:06:55;5.40;;;4.90;;
29938;SDS011;16799;50.844;5.304;2022-12-22T06:09:20;5.00;;;4.60;;
29938;SDS011;16799;50.844;5.304;2022-12-22T06:11:46;5.80;;;5.30;;
29938;SDS011;16799;50.844;5.304;2022-12-22T06:14:11;6.27;;;5.67;;
29938;SDS011;16799;50.844;5.304;2022-12-22T06:16:37;7.83;;;7.13;;
29938;SDS011;16799;50.844;5.304;2022-12-22T06:19:03;8.83;;;7.60;;
29938;SDS011;16799;50.844;5.304;2022-12-22T06:21:28;7.73;;;6.73;;
29938;SDS011;16799;50.844;5.304;2022-12-22T06:23:54;8.43;;;7.37;;
29938;SDS011;16799;50.844;5.304;2022-12-22T06:26:20;12.83;;;8.80;;
29938;SDS011;16799;50.844;5.304;2022-12-22T06:28:46;9.23;;;7.80;;
29938;SDS011;16799;50.844;5.304;2022-12-22T06:31:12;9.33;;;6.80;;
29938;SDS011;16799;50.844;5.304;2022-12-22T06:33:38;9.03;;;8.17;;
29938;SDS011;16799;50.844;5.304;2022-12-22T06:36:04;8.97;;;8.00;;
29938;SDS011;16799;50.844;5.304;2022-12-22T06:38:31;12.13;;;9.17;;
29938;SDS011;16799;50.844;5.304;2022-12-22T06:40:57;11.57;;;10.30;;
29938;SDS011;16799;50.844;5.304;2022-12-22T06:43:23;14.57;;;9.93;;
29938;SDS011;16799;50.844;5.304;2022-12-22T06:45:49;15.87;;;10.37;;
29938;SDS011;16799;50.844;5.304;2022-12-22T06:48:15;17.73;;;11.70;;
29938;SDS011;16799;50.844;5.304;2022-12-22T06:50:41;24.57;;;11.97;;
29938;SDS011;16799;50.844;5.304;2022-12-22T06:53:07;22.67;;;13.47;;
29938;SDS011;16799;50.844;5.304;2022-12-22T06:55:33;25.93;;;14.30;;
29938;SDS011;16799;50.844;5.304;2022-12-22T06:57:58;17.73;;;12.37;;
29938;SDS011;16799;50.844;5.304;2022-12-22T07:00:24;24.93;;;14.30;;
29938;SDS011;16799;50.844;5.304;2022-12-22T07:02:50;24.60;;;13.80;;
29938;SDS011;16799;50.844;5.304;2022-12-22T07:05:16;29.20;;;16.10;;
29938;SDS011;16799;50.844;5.304;2022-12-22T07:07:42;34.00;;;17.60;;
29938;SDS011;16799;50.844;5.304;2022-12-22T07:10:07;34.83;;;17.20;;
29938;SDS011;16799;50.844;5.304;2022-12-22T07:12:33;45.43;;;19.27;;
29938;SDS011;16799;50.844;5.304;2022-12-22T07:14:59;39.07;;;18.07;;
29938;SDS011;16799;50.844;5.304;2022-12-22T07:17:25;43.07;;;18.50;;
29938;SDS011;16799;50.844;5.304;2022-12-22T07:19:50;40.03;;;19.93;;
29938;SDS011;16799;50.844;5.304;2022-12-22T07:22:16;49.03;;;23.07;;
29938;SDS011;16799;50.844;5.304;2022-12-22T07:24:42;45.10;;;20.97;;
29938;SDS011;16799;50.844;5.304;2022-12-22T07:27:07;46.73;;;20.50;;
29938;SDS011;16799;50.844;5.304;2022-12-22T07:29:33;49.57;;;22.30;;
29938;SDS011;16799;50.844;5.304;2022-12-22T07:32:00;47.50;;;21.30;;
29938;SDS011;16799;50.844;5.304;2022-12-22T07:34:26;54.23;;;24.07;;
29938;SDS011;16799;50.844;5.304;2022-12-22T07:36:52;51.73;;;23.77;;
29938;SDS011;16799;50.844;5.304;2022-12-22T07:39:18;59.30;;;27.50;;
29938;SDS011;16799;50.844;5.304;2022-12-22T07:41:43;58.53;;;26.37;;
29938;SDS011;16799;50.844;5.304;2022-12-22T07:44:27;49.20;;;25.47;;
29938;SDS011;16799;50.844;5.304;2022-12-22T07:46:53;67.70;;;27.70;;
29938;SDS011;16799;50.844;5.304;2022-12-22T07:49:19;73.80;;;28.17;;
29938;SDS011;16799;50.844;5.304;2022-12-22T07:52:03;73.33;;;30.60;;
29938;SDS011;16799;50.844;5.304;2022-12-22T07:54:29;82.13;;;31.50;;
29938;SDS011;16799;50.844;5.304;2022-12-22T07:56:54;72.30;;;30.07;;
29938;SDS011;16799;50.844;5.304;2022-12-22T07:59:20;77.33;;;31.47;;
29938;SDS011;16799;50.844;5.304;2022-12-22T08:01:46;82.37;;;29.13;;
29938;SDS011;16799;50.844;5.304;2022-12-22T08:04:12;82.90;;;34.20;;
29938;SDS011;16799;50.844;5.304;2022-12-22T08:06:39;70.27;;;33.43;;
29938;SDS011;16799;50.844;5.304;2022-12-22T08:09:05;78.70;;;32.57;;
29938;SDS011;16799;50.844;5.304;2022-12-22T08:11:32;72.77;;;32.43;;
29938;SDS011;16799;50.844;5.304;2022-12-22T08:13:57;79.00;;;32.03;;
29938;SDS011;16799;50.844;5.304;2022-12-22T08:16:23;81.17;;;34.57;;
29938;SDS011;16799;50.844;5.304;2022-12-22T08:18:49;78.30;;;33.33;;
29938;SDS011;16799;50.844;5.304;2022-12-22T08:21:14;82.30;;;33.90;;
29938;SDS011;16799;50.844;5.304;2022-12-22T08:23:41;82.47;;;32.90;;
29938;SDS011;16799;50.844;5.304;2022-12-22T08:28:37;104.53;;;36.30;;
29938;SDS011;16799;50.844;5.304;2022-12-22T08:31:25;93.53;;;34.17;;
29938;SDS011;16799;50.844;5.304;2022-12-22T08:33:53;75.60;;;33.27;;
29938;SDS011;16799;50.844;5.304;2022-12-22T08:36:20;90.77;;;33.70;;
29938;SDS011;16799;50.844;5.304;2022-12-22T08:38:46;83.03;;;33.37;;
29938;SDS011;16799;50.844;5.304;2022-12-22T08:41:12;69.87;;;31.23;;
29938;SDS011;16799;50.844;5.304;2022-12-22T08:43:39;91.07;;;32.63;;
29938;SDS011;16799;50.844;5.304;2022-12-22T08:46:04;85.40;;;33.70;;
29938;SDS011;16799;50.844;5.304;2022-12-22T08:48:31;85.33;;;32.17;;
29938;SDS011;16799;50.844;5.304;2022-12-22T08:50:56;71.27;;;31.37;;
29938;SDS011;16799;50.844;5.304;2022-12-22T08:53:22;79.83;;;31.30;;
29938;SDS011;16799;50.844;5.304;2022-12-22T08:55:54;95.80;;;34.83;;
29938;SDS011;16799;50.844;5.304;2022-12-22T08:58:20;86.70;;;32.43;;
29938;SDS011;16799;50.844;5.304;2022-12-22T09:00:46;88.90;;;35.47;;
29938;SDS011;16799;50.844;5.304;2022-12-22T09:03:12;83.23;;;33.50;;
29938;SDS011;16799;50.844;5.304;2022-12-22T09:05:38;87.70;;;32.20;;
29938;SDS011;16799;50.844;5.304;2022-12-22T09:08:05;84.87;;;34.63;;
29938;SDS011;16799;50.844;5.304;2022-12-22T09:10:31;81.87;;;33.73;;
29938;SDS011;16799;50.844;5.304;2022-12-22T09:12:57;77.37;;;35.30;;
29938;SDS011;16799;50.844;5.304;2022-12-22T09:15:23;90.70;;;33.57;;
29938;SDS011;16799;50.844;5.304;2022-12-22T09:17:49;97.90;;;35.33;;
29938;SDS011;16799;50.844;5.304;2022-12-22T09:20:15;76.40;;;32.00;;
29938;SDS011;16799;50.844;5.304;2022-12-22T09:22:41;77.90;;;32.57;;
29938;SDS011;16799;50.844;5.304;2022-12-22T09:25:06;72.00;;;31.67;;
29938;SDS011;16799;50.844;5.304;2022-12-22T09:27:32;85.63;;;34.20;;
29938;SDS011;16799;50.844;5.304;2022-12-22T09:29:58;82.40;;;33.20;;
29938;SDS011;16799;50.844;5.304;2022-12-22T09:32:24;79.43;;;31.83;;
29938;SDS011;16799;50.844;5.304;2022-12-22T09:34:49;87.13;;;32.73;;
29938;SDS011;16799;50.844;5.304;2022-12-22T09:37:15;76.73;;;33.40;;
29938;SDS011;16799;50.844;5.304;2022-12-22T09:39:41;90.73;;;33.17;;
29938;SDS011;16799;50.844;5.304;2022-12-22T09:42:14;75.83;;;29.40;;
29938;SDS011;16799;50.844;5.304;2022-12-22T09:44:44;72.07;;;29.10;;
29938;SDS011;16799;50.844;5.304;2022-12-22T09:47:20;74.60;;;29.83;;
29938;SDS011;16799;50.844;5.304;2022-12-22T09:49:50;63.57;;;25.40;;
29938;SDS011;16799;50.844;5.304;2022-12-22T09:52:22;72.13;;;30.50;;
29938;SDS011;16799;50.844;5.304;2022-12-22T09:54:54;62.83;;;26.63;;
29938;SDS011;16799;50.844;5.304;2022-12-22T09:57:20;56.70;;;25.47;;
29938;SDS011;16799;50.844;5.304;2022-12-22T09:59:50;66.97;;;25.20;;
29938;SDS011;16799;50.844;5.304;2022-12-22T10:05:18;67.70;;;28.27;;
29938;SDS011;16799;50.844;5.304;2022-12-22T10:08:14;62.73;;;24.27;;
29938;SDS011;16799;50.844;5.304;2022-12-22T10:10:42;58.50;;;26.10;;
29938;SDS011;16799;50.844;5.304;2022-12-22T10:13:13;57.80;;;23.07;;
29938;SDS011;16799;50.844;5.304;2022-12-22T10:15:42;59.37;;;27.80;;
29938;SDS011;16799;50.844;5.304;2022-12-22T10:18:10;51.00;;;25.97;;
29938;SDS011;16799;50.844;5.304;2022-12-22T10:20:37;60.87;;;26.20;;
29938;SDS011;16799;50.844;5.304;2022-12-22T10:23:11;52.90;;;24.50;;
29938;SDS011;16799;50.844;5.304;2022-12-22T10:28:23;58.33;;;23.87;;
29938;SDS011;16799;50.844;5.304;2022-12-22T10:33:42;41.60;;;18.57;;
29938;SDS011;16799;50.844;5.304;2022-12-22T10:36:09;26.80;;;15.23;;
29938;SDS011;16799;50.844;5.304;2022-12-22T10:38:37;30.03;;;16.30;;
29938;SDS011;16799;50.844;5.304;2022-12-22T10:41:13;36.83;;;17.77;;
29938;SDS011;16799;50.844;5.304;2022-12-22T10:44:43;33.17;;;18.20;;
29938;SDS011;16799;50.844;5.304;2022-12-22T10:46:40;41.73;;;16.83;;
29938;SDS011;16799;50.844;5.304;2022-12-22T10:49:13;41.30;;;18.80;;
29938;SDS011;16799;50.844;5.304;2022-12-22T10:51:40;27.13;;;17.40;;
29938;SDS011;16799;50.844;5.304;2022-12-22T10:54:22;31.97;;;16.53;;
29938;SDS011;16799;50.844;5.304;2022-12-22T10:56:57;33.03;;;16.50;;
29938;SDS011;16799;50.844;5.304;2022-12-22T10:59:31;31.57;;;17.40;;
29938;SDS011;16799;50.844;5.304;2022-12-22T11:02:22;29.00;;;16.43;;
29938;SDS011;16799;50.844;5.304;2022-12-22T11:05:08;28.43;;;15.97;;
29938;SDS011;16799;50.844;5.304;2022-12-22T11:07:36;24.37;;;14.47;;
29938;SDS011;16799;50.844;5.304;2022-12-22T11:10:15;28.70;;;15.03;;
29938;SDS011;16799;50.844;5.304;2022-12-22T11:16:02;22.10;;;14.10;;
29938;SDS011;16799;50.844;5.304;2022-12-22T11:18:54;25.00;;;14.20;;
29938;SDS011;16799;50.844;5.304;2022-12-22T11:24:38;21.40;;;12.83;;
29938;SDS011;16799;50.844;5.304;2022-12-22T11:30:13;20.20;;;13.10;;
29938;SDS011;16799;50.844;5.304;2022-12-22T11:38:23;21.40;;;15.63;;
29938;SDS011;16799;50.844;5.304;2022-12-22T11:41:25;9.40;;;8.40;;
29938;SDS011;16799;50.844;5.304;2022-12-22T11:46:58;7.10;;;6.43;;
29938;SDS011;16799;50.844;5.304;2022-12-22T11:58:53;6.53;;;5.40;;
29938;SDS011;16799;50.844;5.304;2022-12-22T12:04:19;5.90;;;4.47;;
29938;SDS011;16799;50.844;5.304;2022-12-22T12:15:28;9.03;;;5.80;;
29938;SDS011;16799;50.844;5.304;2022-12-22T12:18:02;7.87;;;7.07;;
29938;SDS011;16799;50.844;5.304;2022-12-22T12:23:39;6.43;;;5.93;;
29938;SDS011;16799;50.844;5.304;2022-12-22T12:30:12;6.67;;;6.07;;
29938;SDS011;16799;50.844;5.304;2022-12-22T12:32:58;3.90;;;3.60;;
29938;SDS011;16799;50.844;5.304;2022-12-22T12:38:28;2.20;;;2.00;;
29938;SDS011;16799;50.844;5.304;2022-12-22T12:43:48;8.10;;;1.73;;
29938;SDS011;16799;50.844;5.304;2022-12-22T13:05:31;2.40;;;2.07;;
29938;SDS011;16799;50.844;5.304;2022-12-22T13:15:46;5.60;;;2.30;;
29938;SDS011;16799;50.844;5.304;2022-12-22T13:21:06;3.40;;;3.10;;
29938;SDS011;16799;50.844;5.304;2022-12-22T13:23:46;2.67;;;2.47;;
29938;SDS011;16799;50.844;5.304;2022-12-22T13:26:21;4.20;;;2.73;;
29938;SDS011;16799;50.844;5.304;2022-12-22T13:28:56;3.10;;;2.40;;
29938;SDS011;16799;50.844;5.304;2022-12-22T13:34:06;6.03;;;2.10;;
29938;SDS011;16799;50.844;5.304;2022-12-22T13:36:50;2.67;;;2.47;;
29938;SDS011;16799;50.844;5.304;2022-12-22T13:39:18;3.43;;;2.40;;
29938;SDS011;16799;50.844;5.304;2022-12-22T13:41:45;2.30;;;2.17;;
29938;SDS011;16799;50.844;5.304;2022-12-22T13:44:23;2.43;;;1.90;;
29938;SDS011;16799;50.844;5.304;2022-12-22T13:46:53;3.47;;;1.90;;
29938;SDS011;16799;50.844;5.304;2022-12-22T13:49:20;4.10;;;1.70;;
29938;SDS011;16799;50.844;5.304;2022-12-22T13:51:50;1.83;;;1.70;;
29938;SDS011;16799;50.844;5.304;2022-12-22T13:54:17;2.50;;;1.47;;
29938;SDS011;16799;50.844;5.304;2022-12-22T13:56:52;3.57;;;1.20;;
29938;SDS011;16799;50.844;5.304;2022-12-22T13:59:27;2.00;;;1.60;;
29938;SDS011;16799;50.844;5.304;2022-12-22T14:02:01;2.70;;;1.33;;
29938;SDS011;16799;50.844;5.304;2022-12-22T14:04:28;6.00;;;1.40;;
29938;SDS011;16799;50.844;5.304;2022-12-22T14:06:54;2.87;;;1.87;;
29938;SDS011;16799;50.844;5.304;2022-12-22T14:09:23;2.90;;;1.40;;
29938;SDS011;16799;50.844;5.304;2022-12-22T14:14:22;2.13;;;1.13;;
29938;SDS011;16799;50.844;5.304;2022-12-22T14:16:50;4.47;;;1.23;;
29938;SDS011;16799;50.844;5.304;2022-12-22T14:19:18;1.47;;;1.37;;
29938;SDS011;16799;50.844;5.304;2022-12-22T14:21:46;2.23;;;1.63;;
29938;SDS011;16799;50.844;5.304;2022-12-22T14:24:18;1.57;;;1.33;;
29938;SDS011;16799;50.844;5.304;2022-12-22T14:26:49;7.93;;;1.43;;
29938;SDS011;16799;50.844;5.304;2022-12-22T14:29:17;4.63;;;1.50;;
29938;SDS011;16799;50.844;5.304;2022-12-22T14:31:50;1.77;;;1.50;;
29938;SDS011;16799;50.844;5.304;2022-12-22T14:34:30;4.13;;;1.57;;
29938;SDS011;16799;50.844;5.304;2022-12-22T14:36:57;1.73;;;1.30;;
29938;SDS011;16799;50.844;5.304;2022-12-22T14:39:28;5.40;;;1.73;;
29938;SDS011;16799;50.844;5.304;2022-12-22T14:41:57;3.70;;;1.50;;
29938;SDS011;16799;50.844;5.304;2022-12-22T14:44:28;3.83;;;2.00;;
29938;SDS011;16799;50.844;5.304;2022-12-22T14:52:25;3.23;;;2.00;;
29938;SDS011;16799;50.844;5.304;2022-12-22T14:54:57;2.30;;;2.10;;
29938;SDS011;16799;50.844;5.304;2022-12-22T14:57:27;8.30;;;2.40;;
29938;SDS011;16799;50.844;5.304;2022-12-22T15:00:02;2.90;;;2.60;;
29938;SDS011;16799;50.844;5.304;2022-12-22T15:02:32;14.50;;;3.13;;
29938;SDS011;16799;50.844;5.304;2022-12-22T15:05:12;9.43;;;3.03;;
29938;SDS011;16799;50.844;5.304;2022-12-22T15:07:47;5.77;;;2.90;;
29938;SDS011;16799;50.844;5.304;2022-12-22T15:10:14;3.30;;;3.00;;
29938;SDS011;16799;50.844;5.304;2022-12-22T15:12:40;4.50;;;4.10;;
29938;SDS011;16799;50.844;5.304;2022-12-22T15:15:16;11.43;;;3.60;;
29938;SDS011;16799;50.844;5.304;2022-12-22T15:17:44;6.53;;;3.30;;
29938;SDS011;16799;50.844;5.304;2022-12-22T15:20:17;9.40;;;4.00;;
29938;SDS011;16799;50.844;5.304;2022-12-22T15:22:45;18.03;;;12.40;;
29938;SDS011;16799;50.844;5.304;2022-12-22T15:25:15;14.83;;;5.70;;
29938;SDS011;16799;50.844;5.304;2022-12-22T15:27:45;15.90;;;8.20;;
29938;SDS011;16799;50.844;5.304;2022-12-22T15:30:12;17.43;;;5.13;;
29938;SDS011;16799;50.844;5.304;2022-12-22T15:32:39;41.10;;;22.90;;
29938;SDS011;16799;50.844;5.304;2022-12-22T15:35:26;24.17;;;7.50;;
29938;SDS011;16799;50.844;5.304;2022-12-22T15:37:52;35.00;;;14.03;;
29938;SDS011;16799;50.844;5.304;2022-12-22T15:40:19;19.80;;;7.30;;
29938;SDS011;16799;50.844;5.304;2022-12-22T15:42:46;23.10;;;7.10;;
29938;SDS011;16799;50.844;5.304;2022-12-22T15:45:13;18.33;;;7.30;;
29938;SDS011;16799;50.844;5.304;2022-12-22T15:47:40;18.83;;;9.00;;
29938;SDS011;16799;50.844;5.304;2022-12-22T15:50:10;21.87;;;7.83;;
29938;SDS011;16799;50.844;5.304;2022-12-22T15:52:44;28.97;;;9.60;;
29938;SDS011;16799;50.844;5.304;2022-12-22T15:55:16;16.20;;;6.43;;
29938;SDS011;16799;50.844;5.304;2022-12-22T15:57:43;20.83;;;4.30;;
29938;SDS011;16799;50.844;5.304;2022-12-22T16:00:11;20.03;;;7.97;;
29938;SDS011;16799;50.844;5.304;2022-12-22T16:02:38;27.50;;;5.83;;
29938;SDS011;16799;50.844;5.304;2022-12-22T16:05:04;27.23;;;6.30;;
29938;SDS011;16799;50.844;5.304;2022-12-22T16:07:30;56.33;;;10.70;;
29938;SDS011;16799;50.844;5.304;2022-12-22T16:09:56;18.70;;;6.73;;
29938;SDS011;16799;50.844;5.304;2022-12-22T16:12:22;28.10;;;6.20;;
29938;SDS011;16799;50.844;5.304;2022-12-22T16:14:49;30.00;;;7.07;;
29938;SDS011;16799;50.844;5.304;2022-12-22T16:17:20;23.17;;;6.57;;
29938;SDS011;16799;50.844;5.304;2022-12-22T16:19:47;30.73;;;6.70;;
29938;SDS011;16799;50.844;5.304;2022-12-22T16:22:14;30.57;;;5.87;;
29938;SDS011;16799;50.844;5.304;2022-12-22T16:24:42;33.77;;;7.27;;
29938;SDS011;16799;50.844;5.304;2022-12-22T16:27:10;26.80;;;5.97;;
29938;SDS011;16799;50.844;5.304;2022-12-22T16:29:37;33.23;;;5.93;;
29938;SDS011;16799;50.844;5.304;2022-12-22T16:32:13;42.23;;;7.63;;
29938;SDS011;16799;50.844;5.304;2022-12-22T16:34:41;24.53;;;10.10;;
29938;SDS011;16799;50.844;5.304;2022-12-22T16:37:07;20.43;;;6.90;;
29938;SDS011;16799;50.844;5.304;2022-12-22T16:39:33;18.33;;;6.80;;
29938;SDS011;16799;50.844;5.304;2022-12-22T16:41:58;30.40;;;5.70;;
29938;SDS011;16799;50.844;5.304;2022-12-22T16:44:24;29.27;;;6.30;;
29938;SDS011;16799;50.844;5.304;2022-12-22T16:46:50;32.50;;;6.40;;
29938;SDS011;16799;50.844;5.304;2022-12-22T16:49:17;31.70;;;7.23;;
29938;SDS011;16799;50.844;5.304;2022-12-22T16:51:48;29.20;;;13.20;;
29938;SDS011;16799;50.844;5.304;2022-12-22T16:54:16;31.03;;;9.80;;
29938;SDS011;16799;50.844;5.304;2022-12-22T16:56:42;38.90;;;8.50;;
29938;SDS011;16799;50.844;5.304;2022-12-22T16:59:11;49.40;;;9.47;;
29938;SDS011;16799;50.844;5.304;2022-12-22T17:01:38;23.20;;;6.27;;
29938;SDS011;16799;50.844;5.304;2022-12-22T17:04:12;52.80;;;9.83;;
29938;SDS011;16799;50.844;5.304;2022-12-22T17:06:45;43.50;;;6.87;;
29938;SDS011;16799;50.844;5.304;2022-12-22T17:09:22;29.47;;;9.47;;
29938;SDS011;16799;50.844;5.304;2022-12-22T17:11:52;41.30;;;7.87;;